Condiciones actuales en los principales Aeropuertos de España-Datos Metar

 

LEAL - Alicante
Actualización: 23/10/2019 22:30
Few Clouds
Few Clouds
 Viento del OSO
Viento: OSO 9 km/h
Temperatura: 12°C
Rocío: 9°C
Humedad: 82%
Barómetro: 1011 hPa
Nubosidad: Few Clouds
Visibilidad: 10 km
Cloud details: Few Clouds 1219 m
2019/10/23 20:30 LEAL 232030Z 25005KT 9999 FEW040 12/09 Q1011 NOSIG
LEAB - Albacete
Actualización: 23/10/2019 22:00
Drizzle, Muy nuboso
Drizzle, Muy nuboso
 Viento del SSO
Viento: SSO 7 km/h
Temperatura: 8°C
Wind Chill: 7°C
Rocío: 7°C
Humedad: 93%
Barómetro: 1011 hPa
Resumen: Drizzle
Nubosidad: Mostly Cloudy
Visibilidad: 10 km
Cloud details: Few Clouds 914 m
Mostly Cloudy 1067 m
2019/10/23 20:00 LEAB 232000Z 21004KT 180V240 9999 DZ FEW030 BKN035 08/07 Q1011 NOSIG
LEAM - Almería
Actualización: 23/10/2019 22:30
Despejado
Despejado
 Viento del O
Viento: O 11 km/h
Temperatura: 16°C
Rocío: 11°C
Humedad: 72%
Barómetro: 1012 hPa
Resumen: Despejado
Visibilidad: greater than 10 km
2019/10/23 20:30 LEAM 232030Z 26006KT 230V300 CAVOK 16/11 Q1012
 
LEAS - Asturias/Aviles
Actualización: 23/10/2019 22:30
Partly Cloudy
Partly Cloudy
 Viento del ONO
Viento: ONO 28 km/h, Racha: 46 km/h
Temperatura: 14°C
Rocío: 10°C
Humedad: 77%
Barómetro: 1012 hPa
Nubosidad: Partly Cloudy
Visibilidad: 10 km
Cloud details: Partly Cloudy 914 m
2019/10/23 20:30 LEAS 232030Z 30015G25KT 9999 SCT030 14/10 Q1012 NOSIG
LEBZ - Badajoz/Talavera la Real
Actualización: 23/10/2019 21:00
NO Actualizado
Partly Cloudy
Partly Cloudy
 Viento del varies
Viento: varies 2 km/h
Temperatura: 14°C
Rocío: 10°C
Humedad: 77%
Barómetro: 1013 hPa
Nubosidad: Partly Cloudy
Visibilidad: 10 km
Cloud details: Partly Cloudy 1219 m
2019/10/23 19:00 LEBZ 231900Z VRB01KT 9999 SCT040 14/10 Q1013
LEBL - Barcelona
Actualización: 23/10/2019 22:30
Partly Cloudy
Partly Cloudy
 Viento del SO
Viento: SO 26 km/h
Temperatura: 19°C
Rocío: 10°C
Humedad: 56%
Barómetro: 1009 hPa
Nubosidad: Partly Cloudy
Visibilidad: 10 km
Cloud details: Partly Cloudy 1372 m
2019/10/23 20:30 LEBL 232030Z 22014KT 9999 SCT045 19/10 Q1009 NOSIG
 
LEBB - Bilbao
Actualización: 23/10/2019 22:30
Cubierto
Cubierto
 Viento del O
Viento: O 17 km/h
Temperatura: 15°C
Rocío: 10°C
Humedad: 72%
Barómetro: 1008 hPa
Nubosidad: Cubierto
Visibilidad: 10 km
Cloud details: Cubierto 1006 m
2019/10/23 20:30 LEBB 232030Z 26009KT 200V300 9999 OVC033 15/10 Q1008 TEMPO RA
LEBG - Burgos/Villafría
Actualización: 23/10/2019 22:30
LLuvia, Cubierto
LLuvia, Cubierto
 Viento del ONO
Viento: ONO 9 km/h
Temperatura: 8°C
Wind Chill: 6°C
Rocío: 8°C
Humedad: 100%
Barómetro: 1009 hPa
Resumen: LLuvia
Nubosidad: Cubierto
Visibilidad: 9 km
Cloud details: Partly Cloudy 274 m
Mostly Cloudy 549 m
Cubierto 792 m
2019/10/23 20:30 LEBG 232030Z AUTO 29005KT 260V320 9000 RA SCT009 BKN018 OVC026 08/08 Q1009
LEBA - Córdoba
Actualización: 23/10/2019 22:30
Mostly Cloudy
Mostly Cloudy
 Viento del varies
Viento: varies 4 km/h
Temperatura: 13°C
Rocío: 11°C
Humedad: 88%
Barómetro: 1014 hPa
Nubosidad: Mostly Cloudy
Visibilidad: 10 km
Cloud details: Mostly Cloudy 1036 m
2019/10/23 20:30 LEBA 232030Z AUTO VRB02KT 9999 BKN034 13/11 Q1014
 
LEGE - Gerona
Actualización: 23/10/2019 22:30
Few Clouds
Few Clouds
 Viento del SSO
Viento: SSO 13 km/h
Temperatura: 13°C
Rocío: 11°C
Humedad: 88%
Barómetro: 1009 hPa
Nubosidad: Few Clouds
Visibilidad: 10 km
Cloud details: Few Clouds 1829 m
2019/10/23 20:30 LEGE 232030Z 20007KT 9999 FEW060 13/11 Q1009
LEGR - Granada
Actualización: 23/10/2019 22:30
Cubierto
Cubierto
 Viento del OSO
Viento: OSO 15 km/h
Temperatura: 11°C
Rocío: 10°C
Humedad: 94%
Barómetro: 1014 hPa
Nubosidad: Cubierto
Visibilidad: 10 km
Cloud details: Mostly Cloudy 1219 m
Cubierto 1463 m
2019/10/23 20:30 LEGR 232030Z 24008KT 9999 BKN040 OVC048 11/10 Q1014 REDZ
GCHI - Hierro
Actualización: 23/10/2019 22:30
Cubierto
Cubierto
 Viento del N
Viento: N 20 km/h
Temperatura: 22°C
Rocío: 16°C
Humedad: 69%
Barómetro: 1018 hPa
Nubosidad: Cubierto
Visibilidad: 10 km
Cloud details: Few Clouds 975 m
Cubierto 1829 m
2019/10/23 20:30 GCHI 232030Z AUTO 36011KT 9999 FEW032 OVC060 22/16 Q1018
 
LEIB - Ibiza
Actualización: 23/10/2019 22:30
Lluvia débil, Parcialmente nublado
Lluvia débil, Parcialmente nublado
 Viento del O
Viento: O 20 km/h
Temperatura: 16°C
Rocío: 11°C
Humedad: 72%
Barómetro: 1011 hPa
Resumen: Light Rain
Nubosidad: Partly Cloudy
Visibilidad: 10 km
Cloud details: Few Clouds 549 m
Few Clouds 914 m
Partly Cloudy 1372 m
2019/10/23 20:30 LEIB 232030Z 27011KT 9999 -RA FEW018 FEW030CB SCT045 16/11 Q1011 TEMPO 4000 TSRA SCT030CB
LEJR - Jerez de la Frontera
Actualización: 23/10/2019 22:30
Mostly Cloudy
Mostly Cloudy
 Viento del ONO
Viento: ONO 13 km/h
Temperatura: 16°C
Rocío: 12°C
Humedad: 77%
Barómetro: 1015 hPa
Nubosidad: Mostly Cloudy
Visibilidad: 10 km
Cloud details: Mostly Cloudy 1829 m
2019/10/23 20:30 LEJR 232030Z 29007KT 250V320 9999 BKN060 16/12 Q1015
LECO - A Coruña
Actualización: 23/10/2019 22:30
Partly Cloudy
Partly Cloudy
 Viento del O
Viento: O 11 km/h
Temperatura: 13°C
Rocío: 11°C
Humedad: 88%
Barómetro: 1014 hPa
Nubosidad: Partly Cloudy
Visibilidad: 10 km
Cloud details: Partly Cloudy 792 m
Partly Cloudy 1219 m
2019/10/23 20:30 LECO 232030Z 28006KT 240V300 9999 SCT026 SCT040 13/11 Q1014 NOSIG
 
GCLA - La Palma
Actualización: 23/10/2019 22:30
Cubierto
Cubierto
 Viento del NO
Viento: NO 17 km/h
Temperatura: 20°C
Rocío: 14°C
Humedad: 69%
Barómetro: 1018 hPa
Nubosidad: Cubierto
Visibilidad: 10 km
Cloud details: Partly Cloudy 1036 m
Mostly Cloudy 1311 m
Cubierto 1524 m
2019/10/23 20:30 GCLA 232030Z AUTO 31009KT 9999 SCT034 BKN043 OVC050 20/14 Q1018
GCRR - Lanzarote
Actualización: 23/10/2019 22:30
Partly Cloudy
Partly Cloudy
 Viento del NE
Viento: NE 20 km/h
Temperatura: 21°C
Rocío: 15°C
Humedad: 69%
Barómetro: 1018 hPa
Nubosidad: Partly Cloudy
Visibilidad: 10 km
Cloud details: Partly Cloudy 1219 m
2019/10/23 20:30 GCRR 232030Z 04011KT 9999 SCT040 21/15 Q1018
GCLP - Las Palmas
Actualización: 23/10/2019 22:30
Mostly Cloudy
Mostly Cloudy
 Viento del NE
Viento: NE 24 km/h
Temperatura: 21°C
Rocío: 14°C
Humedad: 64%
Barómetro: 1018 hPa
Nubosidad: Mostly Cloudy
Visibilidad: 10 km
Cloud details: Few Clouds 914 m
Mostly Cloudy 1524 m
2019/10/23 20:30 GCLP 232030Z 04013KT 9999 FEW030 BKN050 21/14 Q1018 NOSIG
 
LELN - León
Actualización: 23/10/2019 22:30
Lluvia débil, Muy nuboso
Lluvia débil, Muy nuboso
 Viento del ONO
Viento: ONO 11 km/h
Temperatura: 6°C
Wind Chill: 4°C
Rocío: 4°C
Humedad: 87%
Barómetro: 1011 hPa
Resumen: Light Rain
Nubosidad: Mostly Cloudy
Visibilidad: 10 km
Cloud details: Mostly Cloudy 1372 m
Mostly Cloudy 1707 m
2019/10/23 20:30 LELN 232030Z AUTO 29006KT 260V320 9999 -RA BKN045 BKN056 06/04 Q1011
LELO - Logroño
Actualización: 23/10/2019 22:30
Lluvia débil, Muy nuboso
Lluvia débil, Muy nuboso
 Viento del OSO
Viento: OSO 15 km/h
Temperatura: 12°C
Rocío: 11°C
Humedad: 94%
Barómetro: 1008 hPa
Resumen: Light Rain
Nubosidad: Mostly Cloudy
Visibilidad: 5 km
Cloud details: Few Clouds 305 m
Partly Cloudy 610 m
Mostly Cloudy 914 m
2019/10/23 20:30 LELO 232030Z 25008KT 5000 -RA FEW010 SCT020 BKN030 12/11 Q1008
LECV - Madrid/Colmenar
Actualización: 23/10/2019 20:00
NO Actualizado
Mostly Cloudy
Mostly Cloudy
 Viento del SO
Viento: SO 7 km/h
Temperatura: 8°C
Wind Chill: 7°C
Rocío: 7°C
Humedad: 93%
Barómetro: 1009 hPa
Nubosidad: Mostly Cloudy
Visibilidad: 10 km
Cloud details: Partly Cloudy 122 m
Mostly Cloudy 457 m
2019/10/23 18:00 LECV 231800Z 22004KT 9999 SCT004 BKN015 08/07 Q1009
 
LEMD - Madrid/Barajas
Actualización: 23/10/2019 22:30
Mostly Cloudy
Mostly Cloudy
 Viento del S
Viento: S 7 km/h
Temperatura: 10°C
Wind Chill: 9°C
Rocío: 9°C
Humedad: 94%
Barómetro: 1011 hPa
Nubosidad: Mostly Cloudy
Visibilidad: 10 km
Cloud details: Few Clouds 244 m
Partly Cloudy 488 m
Mostly Cloudy 1219 m
2019/10/23 20:30 LEMD 232030Z 17004KT 130V210 9999 FEW008 SCT016 BKN040 10/09 Q1011 NOSIG
LEVS - Madrid/Cuatro Vientos
Actualización: 23/10/2019 22:00
Mostly Cloudy
Mostly Cloudy
 Viento del OSO
Viento: OSO 9 km/h
Temperatura: 10°C
Wind Chill: 9°C
Rocío: 8°C
Humedad: 88%
Barómetro: 1011 hPa
Nubosidad: Mostly Cloudy
Visibilidad: 10 km
Cloud details: Mostly Cloudy 1067 m
2019/10/23 20:00 LEVS 232000Z 24005KT 9999 BKN035 10/08 Q1011
LEGT - Madrid/Getafe
Actualización: 23/10/2019 21:00
NO Actualizado
Mostly Cloudy
Mostly Cloudy
 Viento del SO
Viento: SO 9 km/h
Temperatura: 10°C
Wind Chill: 9°C
Rocío: 9°C
Humedad: 94%
Barómetro: 1010 hPa
Nubosidad: Mostly Cloudy
Visibilidad: 10 km
Cloud details: Few Clouds 213 m
Partly Cloudy 244 m
Mostly Cloudy 305 m
2019/10/23 19:00 LEGT 231900Z 23005KT 200V260 9999 FEW007 SCT008 BKN010 10/09 Q1010
 
LETO - Madrid/Torrejón
Actualización: 23/10/2019 22:00
Mostly Cloudy
Mostly Cloudy
 Viento del S
Viento: S 9 km/h
Temperatura: 10°C
Wind Chill: 9°C
Rocío: 9°C
Humedad: 94%
Barómetro: 1011 hPa
Nubosidad: Mostly Cloudy
Visibilidad: 10 km
Cloud details: Few Clouds 244 m
Partly Cloudy 610 m
Mostly Cloudy 1372 m
2019/10/23 20:00 LETO 232000Z 19005KT 9999 FEW008 SCT020 BKN045 10/09 Q1011 NOSIG
LEMG - Málaga
Actualización: 23/10/2019 22:30
Mostly Cloudy
Mostly Cloudy
 Viento del ONO
Viento: ONO 28 km/h
Temperatura: 18°C
Rocío: 8°C
Humedad: 52%
Barómetro: 1014 hPa
Nubosidad: Mostly Cloudy
Visibilidad: 10 km
Cloud details: Few Clouds 1219 m
Mostly Cloudy 1829 m
2019/10/23 20:30 LEMG 232030Z 30015KT 9999 FEW040 BKN060 18/08 Q1014 NOSIG
GEML - Melilla
Actualización: 23/10/2019 22:30
Despejado
Despejado
 Viento del SO
Viento: SO 15 km/h
Temperatura: 18°C
Rocío: 6°C
Humedad: 46%
Barómetro: 1015 hPa
Resumen: Despejado
Visibilidad: greater than 10 km
2019/10/23 20:30 GEML 232030Z 22008KT 170V270 CAVOK 18/06 Q1015
 
LEMH - Mahón
Actualización: 23/10/2019 22:30
Few Clouds
Few Clouds
 Viento del SO
Viento: SO 19 km/h
Temperatura: 17°C
Rocío: 12°C
Humedad: 73%
Barómetro: 1011 hPa
Nubosidad: Few Clouds
Visibilidad: 10 km
Cloud details: Few Clouds 762 m
2019/10/23 20:30 LEMH 232030Z 22010KT 190V270 9999 FEW025 17/12 Q1011
LEMO - Morón de La Frontera
Actualización: 23/10/2019 22:00
Partly Cloudy
Partly Cloudy
 Viento del SSO
Viento: SSO 9 km/h
Temperatura: 14°C
Rocío: 11°C
Humedad: 82%
Barómetro: 1015 hPa
Nubosidad: Partly Cloudy
Visibilidad: 10 km
Cloud details: Partly Cloudy 1829 m
2019/10/23 20:00 LEMO 232000Z 21005KT 9999 SCT060 14/11 Q1015 NOSIG
LEMI - Murcia/Corvera
Actualización: 23/10/2019 22:30
Lluvia débil, Poco nuboso
Lluvia débil, Poco nuboso
 Viento del OSO
Viento: OSO 19 km/h
Temperatura: 14°C
Rocío: 8°C
Humedad: 67%
Barómetro: 1012 hPa
Resumen: Light Rain
Nubosidad: Few Clouds
Visibilidad: 10 km
Cloud details: Few Clouds 1829 m
2019/10/23 20:30 LEMI 232030Z 25010KT 9999 -RA FEW060 14/08 Q1012
 
LERI - Murcia/Alcantarilla
Actualización: 23/10/2019 20:00
NO Actualizado
Few Clouds
Few Clouds
 Viento del S
Viento: S 6 km/h
Temperatura: 15°C
Rocío: 10°C
Humedad: 72%
Barómetro: 1011 hPa
Nubosidad: Few Clouds
Visibilidad: 10 km
Cloud details: Few Clouds 1829 m
2019/10/23 18:00 LERI 231800Z 18003KT 150V220 9999 FEW060 15/10 Q1011 NOSIG
LELC - Murcia/San Javier
Actualización: 23/10/2019 22:30
Despejado
Despejado
 Viento del O
Viento: O 11 km/h
Temperatura: 15°C
Rocío: 10°C
Humedad: 72%
Barómetro: 1011 hPa
Resumen: Despejado
Visibilidad: greater than 10 km
2019/10/23 20:30 LELC 232030Z AUTO 27006KT CAVOK 15/10 Q1011
LEPA - Palma de Mallorca
Actualización: 23/10/2019 22:30
Few Clouds
Few Clouds
 Viento del NE
Viento: NE 9 km/h
Temperatura: 14°C
Rocío: 12°C
Humedad: 88%
Barómetro: 1011 hPa
Nubosidad: Few Clouds
Visibilidad: 10 km
Cloud details: Few Clouds 914 m
2019/10/23 20:30 LEPA 232030Z 05005KT 020V080 9999 FEW030 14/12 Q1011 NOSIG
 
LEPP - Pamplona
Actualización: 23/10/2019 22:30
Partly Cloudy
Partly Cloudy
 Viento del calm
Viento: Calma
Temperatura: 10°C
Rocío: 9°C
Humedad: 94%
Barómetro: 1008 hPa
Nubosidad: Partly Cloudy
Visibilidad: 10 km
Cloud details: Partly Cloudy 914 m
2019/10/23 20:30 LEPP 232030Z 00000KT 9999 SCT030 10/09 Q1008
LERS - Reus
Actualización: 23/10/2019 22:30
Few Clouds
Few Clouds
 Viento del varies
Viento: varies 4 km/h
Temperatura: 14°C
Rocío: 12°C
Humedad: 88%
Barómetro: 1009 hPa
Nubosidad: Few Clouds
Visibilidad: 10 km
Cloud details: Few Clouds 610 m
2019/10/23 20:30 LERS 232030Z VRB02KT 9999 FEW020 14/12 Q1009
LERT - Rota
Actualización: 23/10/2019 22:00
Partly Cloudy
Partly Cloudy
 Viento del ONO
Viento: ONO 24 km/h
Temperatura: 19°C
Rocío: 11°C
Humedad: 60%
Barómetro: 1015 hPa
Nubosidad: Partly Cloudy
Visibilidad: 10 km
Cloud details: Few Clouds 1128 m
Partly Cloudy 1798 m
2019/10/23 20:00 LERT 232000Z 29013KT 260V330 9999 FEW037 SCT059 19/11 Q1015 NOSIG
 
LELL - Sabadell
Actualización: 23/10/2019 22:30
Few Clouds
Few Clouds
 Viento del ONO
Viento: ONO 7 km/h
Temperatura: 13°C
Rocío: 12°C
Humedad: 94%
Barómetro: 1009 hPa
Nubosidad: Few Clouds
Visibilidad: 10 km
Cloud details: Few Clouds 1311 m
2019/10/23 20:30 LELL 232030Z AUTO 30004KT 9999 FEW043 13/12 Q1009
LESA - Salamanca
Actualización: 23/10/2019 22:30
Lluvia débil, Muy nuboso
Lluvia débil, Muy nuboso
 Viento del O
Viento: O 11 km/h
Temperatura: 8°C
Wind Chill: 6°C
Rocío: 7°C
Humedad: 93%
Barómetro: 1012 hPa
Resumen: Light Rain
Nubosidad: Mostly Cloudy
Visibilidad: 8 km
Cloud details: Few Clouds 213 m
Mostly Cloudy 1219 m
2019/10/23 20:30 LESA 232030Z AUTO 28006KT 8000 -RA FEW007 BKN040 08/07 Q1012
LESO - San Sebastián
Actualización: 23/10/2019 22:30
Mostly Cloudy
Mostly Cloudy
 Viento del OSO
Viento: OSO 19 km/h
Temperatura: 15°C
Rocío: 11°C
Humedad: 77%
Barómetro: 1008 hPa
Nubosidad: Mostly Cloudy
Visibilidad: 10 km
Cloud details: Partly Cloudy 1097 m
Mostly Cloudy 1463 m
Mostly Cloudy 1676 m
2019/10/23 20:30 LESO 232030Z AUTO 24010KT 190V280 9999 SCT036 BKN048 BKN055 15/11 Q1008
 
LEXJ - Santander
Actualización: 23/10/2019 22:30
LLuvia, Cubierto
LLuvia, Cubierto
 Viento del OSO
Viento: OSO 24 km/h
Temperatura: 12°C
Rocío: 10°C
Humedad: 88%
Barómetro: 1009 hPa
Resumen: LLuvia
Nubosidad: Cubierto
Visibilidad: 6 km
Cloud details: Few Clouds 610 m
Cubierto 792 m
2019/10/23 20:30 LEXJ 232030Z 25013KT 210V270 6000 RA FEW020 OVC026 12/10 Q1009
LEPA - Palma de Mallorca
Actualización: 23/10/2019 22:30
Few Clouds
Few Clouds
 Viento del NE
Viento: NE 9 km/h
Temperatura: 14°C
Rocío: 12°C
Humedad: 88%
Barómetro: 1011 hPa
Nubosidad: Few Clouds
Visibilidad: 10 km
Cloud details: Few Clouds 914 m
2019/10/23 20:30 LEPA 232030Z 05005KT 020V080 9999 FEW030 14/12 Q1011 NOSIG
LEPP - Pamplona
Actualización: 23/10/2019 22:30
Partly Cloudy
Partly Cloudy
 Viento del calm
Viento: Calma
Temperatura: 10°C
Rocío: 9°C
Humedad: 94%
Barómetro: 1008 hPa
Nubosidad: Partly Cloudy
Visibilidad: 10 km
Cloud details: Partly Cloudy 914 m
2019/10/23 20:30 LEPP 232030Z 00000KT 9999 SCT030 10/09 Q1008
 
LEST - Santiago de Compostela
Actualización: 23/10/2019 22:30
Few Clouds
Few Clouds
 Viento del O
Viento: O 6 km/h
Temperatura: 10°C
Rocío: 9°C
Humedad: 94%
Barómetro: 1014 hPa
Nubosidad: Few Clouds
Visibilidad: 10 km
Cloud details: Few Clouds 457 m
2019/10/23 20:30 LEST 232030Z 28003KT 9999 FEW015 10/09 Q1014 NOSIG
LEZL - Sevilla
Actualización: 23/10/2019 22:30
Few Clouds
Few Clouds
 Viento del OSO
Viento: OSO 15 km/h
Temperatura: 16°C
Rocío: 10°C
Humedad: 68%
Barómetro: 1015 hPa
Nubosidad: Few Clouds
Visibilidad: 10 km
Cloud details: Few Clouds 1372 m
2019/10/23 20:30 LEZL 232030Z 25008KT 9999 FEW045 16/10 Q1015 NOSIG
GCXO - Tenerife
Actualización: 23/10/2019 22:30
Few Clouds
Few Clouds
 Viento del SE
Viento: SE 6 km/h
Temperatura: 15°C
Rocío: 11°C
Humedad: 77%
Barómetro: 1020 hPa
Nubosidad: Few Clouds
Visibilidad: 10 km
Cloud details: Few Clouds 914 m
2019/10/23 20:30 GCXO 232030Z 14003KT 080V170 9999 FEW030 15/11 Q1020 NOSIG
 
GCTS - Tenerife-Sur
Actualización: 23/10/2019 22:30
Few Clouds
Few Clouds
 Viento del ENE
Viento: ENE 22 km/h
Temperatura: 21°C
Rocío: 13°C
Humedad: 60%
Barómetro: 1018 hPa
Nubosidad: Few Clouds
Visibilidad: 10 km
Cloud details: Few Clouds 914 m
2019/10/23 20:30 GCTS 232030Z 07012KT 9999 FEW030 21/13 Q1018 NOSIG
LEVC - Valencia
Actualización: 23/10/2019 22:30
Few Clouds
Few Clouds
 Viento del S
Viento: S 6 km/h
Temperatura: 14°C
Rocío: 8°C
Humedad: 67%
Barómetro: 1010 hPa
Nubosidad: Few Clouds
Visibilidad: 10 km
Cloud details: Few Clouds 1067 m
2019/10/23 20:30 LEVC 232030Z 19003KT 9999 FEW035 14/08 Q1010 NOSIG
LEVD - Valladolid
Actualización: 23/10/2019 21:30
Cubierto
Cubierto
 Viento del NO
Viento: NO 26 km/h
Temperatura: 8°C
Wind Chill: 4°C
Rocío: 6°C
Humedad: 87%
Barómetro: 1010 hPa
Nubosidad: Cubierto
Visibilidad: 10 km
Cloud details: Cubierto 1463 m
2019/10/23 19:30 LEVD 231930Z 31014KT 9999 OVC048 08/06 Q1010
 
LEVX - Vigo
Actualización: 23/10/2019 22:30
Few Clouds
Few Clouds
 Viento del NO
Viento: NO 9 km/h
Temperatura: 12°C
Rocío: 10°C
Humedad: 88%
Barómetro: 1014 hPa
Nubosidad: Few Clouds
Visibilidad: 10 km
Cloud details: Few Clouds 1067 m
2019/10/23 20:30 LEVX 232030Z 32005KT 280V350 9999 FEW035 12/10 Q1014 NOSIG
LEVT - Vitoria
Actualización: 23/10/2019 22:30
Lluvia débil, Muy nuboso
Lluvia débil, Muy nuboso
 Viento del O
Viento: O 11 km/h
Temperatura: 11°C
Rocío: 9°C
Humedad: 88%
Barómetro: 1009 hPa
Resumen: Light Rain
Nubosidad: Mostly Cloudy
Visibilidad: 9 km
Cloud details: Few Clouds 457 m
Mostly Cloudy 1372 m
2019/10/23 20:30 LEVT 232030Z 26006KT 220V290 9000 -RA FEW015 BKN045 11/09 Q1009
LEZG - Zaragoza
Actualización: 23/10/2019 22:30
Partly Cloudy
Partly Cloudy
 Viento del SSO
Viento: SSO 7 km/h
Temperatura: 13°C
Rocío: 10°C
Humedad: 82%
Barómetro: 1008 hPa
Nubosidad: Partly Cloudy
Visibilidad: 10 km
Cloud details: Few Clouds 1219 m
Partly Cloudy 2591 m
2019/10/23 20:30 LEZG 232030Z 21004KT 9999 FEW040 SCT085 13/10 Q1008

La estación de MeteoMurcia.com, publica sus datos en los siguientes proyectos:

Weather Underground PWS IMURCIAP2 Meteoclimatic www.awekas.at

W3Counter
Web Analytics